sensor_id;sensor_type;location;lat;lon;timestamp;pressure;altitude;pressure_sealevel;temperature;humidity
69980;BME280;57318;56.232;43.944;2022-08-26T00:00:20;99900.44;;;22.55;39.45
69980;BME280;57318;56.232;43.944;2022-08-26T00:02:46;99910.63;;;22.53;38.94
69980;BME280;57318;56.232;43.944;2022-08-26T00:05:12;99922.28;;;22.53;38.99
69980;BME280;57318;56.232;43.944;2022-08-26T00:07:37;99907.72;;;22.55;38.53
69980;BME280;57318;56.232;43.944;2022-08-26T00:10:04;99903.97;;;22.56;38.46
69980;BME280;57318;56.232;43.944;2022-08-26T00:12:30;99906.50;;;22.57;38.05
69980;BME280;57318;56.232;43.944;2022-08-26T00:14:56;99899.88;;;22.60;37.33
69980;BME280;57318;56.232;43.944;2022-08-26T00:17:21;99907.44;;;22.64;37.38
69980;BME280;57318;56.232;43.944;2022-08-26T00:19:48;99895.00;;;22.70;36.89
69980;BME280;57318;56.232;43.944;2022-08-26T00:22:14;99900.88;;;22.74;36.84
69980;BME280;57318;56.232;43.944;2022-08-26T00:24:39;99896.72;;;22.78;36.43
69980;BME280;57318;56.232;43.944;2022-08-26T00:27:05;99900.75;;;22.82;35.86
69980;BME280;57318;56.232;43.944;2022-08-26T00:29:35;99899.34;;;22.86;35.61
69980;BME280;57318;56.232;43.944;2022-08-26T00:32:00;99899.59;;;22.91;34.89
69980;BME280;57318;56.232;43.944;2022-08-26T00:34:27;99897.13;;;22.96;34.53
69980;BME280;57318;56.232;43.944;2022-08-26T00:36:53;99893.03;;;23.00;34.07
69980;BME280;57318;56.232;43.944;2022-08-26T00:39:19;99896.00;;;23.05;33.98
69980;BME280;57318;56.232;43.944;2022-08-26T00:41:45;99897.97;;;23.12;33.91
69980;BME280;57318;56.232;43.944;2022-08-26T00:44:10;99900.91;;;23.17;33.50
69980;BME280;57318;56.232;43.944;2022-08-26T00:46:41;99895.09;;;23.20;33.11
69980;BME280;57318;56.232;43.944;2022-08-26T00:49:35;99897.25;;;23.24;32.94
69980;BME280;57318;56.232;43.944;2022-08-26T00:52:04;99897.03;;;23.26;32.55
69980;BME280;57318;56.232;43.944;2022-08-26T00:54:34;99890.22;;;23.30;32.48
69980;BME280;57318;56.232;43.944;2022-08-26T00:57:09;99892.72;;;23.32;32.51
69980;BME280;57318;56.232;43.944;2022-08-26T00:59:36;99891.88;;;23.31;32.72
69980;BME280;57318;56.232;43.944;2022-08-26T01:02:02;99893.94;;;23.29;32.66
69980;BME280;57318;56.232;43.944;2022-08-26T01:04:29;99891.44;;;23.28;32.69
69980;BME280;57318;56.232;43.944;2022-08-26T01:06:55;99898.09;;;23.25;32.86
69980;BME280;57318;56.232;43.944;2022-08-26T01:09:22;99892.69;;;23.25;32.71
69980;BME280;57318;56.232;43.944;2022-08-26T01:11:50;99889.78;;;23.27;32.63
69980;BME280;57318;56.232;43.944;2022-08-26T01:14:18;99891.00;;;23.24;33.08
69980;BME280;57318;56.232;43.944;2022-08-26T01:16:45;99898.00;;;23.18;33.42
69980;BME280;57318;56.232;43.944;2022-08-26T01:19:23;99889.19;;;23.10;33.66
69980;BME280;57318;56.232;43.944;2022-08-26T01:22:05;99893.03;;;23.00;33.79
69980;BME280;57318;56.232;43.944;2022-08-26T01:24:32;99892.09;;;22.93;34.37
69980;BME280;57318;56.232;43.944;2022-08-26T01:27:03;99892.88;;;22.87;34.63
69980;BME280;57318;56.232;43.944;2022-08-26T01:29:31;99893.00;;;22.79;35.23
69980;BME280;57318;56.232;43.944;2022-08-26T01:31:58;99893.50;;;22.67;35.44
69980;BME280;57318;56.232;43.944;2022-08-26T01:34:29;99892.94;;;22.57;35.83
69980;BME280;57318;56.232;43.944;2022-08-26T01:37:11;99890.75;;;22.46;36.04
69980;BME280;57318;56.232;43.944;2022-08-26T01:39:38;99895.44;;;22.37;36.11
69980;BME280;57318;56.232;43.944;2022-08-26T01:42:07;99896.84;;;22.33;36.50
69980;BME280;57318;56.232;43.944;2022-08-26T01:44:39;99895.47;;;22.29;36.51
69980;BME280;57318;56.232;43.944;2022-08-26T01:47:07;99889.44;;;22.27;36.54
69980;BME280;57318;56.232;43.944;2022-08-26T01:49:35;99886.91;;;22.25;36.63
69980;BME280;57318;56.232;43.944;2022-08-26T01:52:03;99890.00;;;22.22;36.42
69980;BME280;57318;56.232;43.944;2022-08-26T01:54:29;99885.59;;;22.21;36.34
69980;BME280;57318;56.232;43.944;2022-08-26T01:56:55;99895.03;;;22.25;36.33
69980;BME280;57318;56.232;43.944;2022-08-26T01:59:22;99891.13;;;22.28;36.39
69980;BME280;57318;56.232;43.944;2022-08-26T02:01:48;99891.78;;;22.30;36.50
69980;BME280;57318;56.232;43.944;2022-08-26T02:04:34;99888.22;;;22.29;36.50
69980;BME280;57318;56.232;43.944;2022-08-26T02:07:08;99893.63;;;22.29;36.75
69980;BME280;57318;56.232;43.944;2022-08-26T02:09:39;99902.50;;;22.23;36.98
69980;BME280;57318;56.232;43.944;2022-08-26T02:12:05;99902.22;;;22.18;37.13
69980;BME280;57318;56.232;43.944;2022-08-26T02:14:37;99906.34;;;22.14;37.18
69980;BME280;57318;56.232;43.944;2022-08-26T02:17:07;99907.09;;;22.08;37.73
69980;BME280;57318;56.232;43.944;2022-08-26T02:19:37;99909.50;;;22.03;37.45
69980;BME280;57318;56.232;43.944;2022-08-26T02:22:08;99909.88;;;21.99;37.52
69980;BME280;57318;56.232;43.944;2022-08-26T02:24:59;99908.66;;;22.02;37.30
69980;BME280;57318;56.232;43.944;2022-08-26T02:27:29;99908.47;;;22.04;37.40
69980;BME280;57318;56.232;43.944;2022-08-26T02:30:12;99907.44;;;22.05;37.46
69980;BME280;57318;56.232;43.944;2022-08-26T02:32:39;99912.50;;;22.08;37.30
69980;BME280;57318;56.232;43.944;2022-08-26T02:35:06;99912.13;;;22.11;37.12
69980;BME280;57318;56.232;43.944;2022-08-26T02:37:32;99914.28;;;22.15;37.10
69980;BME280;57318;56.232;43.944;2022-08-26T02:39:58;99917.06;;;22.22;37.02
69980;BME280;57318;56.232;43.944;2022-08-26T02:42:24;99921.09;;;22.26;36.67
69980;BME280;57318;56.232;43.944;2022-08-26T02:44:49;99915.28;;;22.29;36.70
69980;BME280;57318;56.232;43.944;2022-08-26T02:47:15;99921.56;;;22.30;36.45
69980;BME280;57318;56.232;43.944;2022-08-26T02:49:42;99922.41;;;22.30;36.34
69980;BME280;57318;56.232;43.944;2022-08-26T02:52:09;99920.38;;;22.32;36.34
69980;BME280;57318;56.232;43.944;2022-08-26T02:54:34;99922.88;;;22.34;36.44
69980;BME280;57318;56.232;43.944;2022-08-26T02:57:00;99925.41;;;22.36;36.59
69980;BME280;57318;56.232;43.944;2022-08-26T02:59:27;99932.84;;;22.33;36.56
69980;BME280;57318;56.232;43.944;2022-08-26T03:01:54;99924.28;;;22.30;36.79
69980;BME280;57318;56.232;43.944;2022-08-26T03:04:20;99918.00;;;22.29;36.89
69980;BME280;57318;56.232;43.944;2022-08-26T03:06:46;99917.53;;;22.26;36.91
69980;BME280;57318;56.232;43.944;2022-08-26T03:09:13;99924.81;;;22.25;36.89
69980;BME280;57318;56.232;43.944;2022-08-26T03:11:38;99921.28;;;22.25;37.60
69980;BME280;57318;56.232;43.944;2022-08-26T03:14:04;99917.06;;;22.22;37.26
69980;BME280;57318;56.232;43.944;2022-08-26T03:16:36;99922.47;;;22.22;37.44
69980;BME280;57318;56.232;43.944;2022-08-26T03:19:04;99928.91;;;22.21;37.67
69980;BME280;57318;56.232;43.944;2022-08-26T03:21:30;99933.50;;;22.21;37.68
69980;BME280;57318;56.232;43.944;2022-08-26T03:23:56;99928.91;;;22.21;37.76
69980;BME280;57318;56.232;43.944;2022-08-26T03:26:22;99925.38;;;22.21;37.74
69980;BME280;57318;56.232;43.944;2022-08-26T03:28:47;99937.88;;;22.22;38.14
69980;BME280;57318;56.232;43.944;2022-08-26T03:31:32;99936.19;;;22.21;38.26
69980;BME280;57318;56.232;43.944;2022-08-26T03:33:58;99939.09;;;22.19;38.44
69980;BME280;57318;56.232;43.944;2022-08-26T03:36:24;99938.44;;;22.17;38.74
69980;BME280;57318;56.232;43.944;2022-08-26T03:38:49;99932.19;;;22.16;38.66
69980;BME280;57318;56.232;43.944;2022-08-26T03:41:15;99931.34;;;22.16;38.74
69980;BME280;57318;56.232;43.944;2022-08-26T03:43:42;99928.91;;;22.21;38.99
69980;BME280;57318;56.232;43.944;2022-08-26T03:46:09;99929.75;;;22.22;38.89
69980;BME280;57318;56.232;43.944;2022-08-26T03:48:35;99933.13;;;22.24;38.87
69980;BME280;57318;56.232;43.944;2022-08-26T03:51:02;99929.84;;;22.28;38.83
69980;BME280;57318;56.232;43.944;2022-08-26T03:53:28;99941.16;;;22.32;38.68
69980;BME280;57318;56.232;43.944;2022-08-26T03:55:54;99937.91;;;22.37;38.64
69980;BME280;57318;56.232;43.944;2022-08-26T03:58:20;99949.22;;;22.40;38.33
69980;BME280;57318;56.232;43.944;2022-08-26T04:00:46;99941.16;;;22.47;38.16
69980;BME280;57318;56.232;43.944;2022-08-26T04:03:12;99947.88;;;22.51;38.28
69980;BME280;57318;56.232;43.944;2022-08-26T04:05:57;99941.06;;;22.55;38.32
69980;BME280;57318;56.232;43.944;2022-08-26T04:08:23;99945.91;;;22.60;38.45
69980;BME280;57318;56.232;43.944;2022-08-26T04:10:49;99949.25;;;22.62;38.90
69980;BME280;57318;56.232;43.944;2022-08-26T04:13:14;99944.53;;;22.64;38.83
69980;BME280;57318;56.232;43.944;2022-08-26T04:15:40;99938.91;;;22.65;39.04
69980;BME280;57318;56.232;43.944;2022-08-26T04:18:05;99941.25;;;22.68;38.72
69980;BME280;57318;56.232;43.944;2022-08-26T04:20:31;99945.41;;;22.71;38.68
69980;BME280;57318;56.232;43.944;2022-08-26T04:22:57;99948.59;;;22.75;38.76
69980;BME280;57318;56.232;43.944;2022-08-26T04:25:22;99949.69;;;22.80;38.43
69980;BME280;57318;56.232;43.944;2022-08-26T04:27:48;99945.59;;;22.84;38.11
69980;BME280;57318;56.232;43.944;2022-08-26T04:30:14;99947.72;;;22.89;38.36
69980;BME280;57318;56.232;43.944;2022-08-26T04:32:40;99959.47;;;22.96;39.09
69980;BME280;57318;56.232;43.944;2022-08-26T04:35:05;99955.34;;;23.00;38.25
69980;BME280;57318;56.232;43.944;2022-08-26T04:37:31;99950.00;;;23.07;38.82
69980;BME280;57318;56.232;43.944;2022-08-26T04:39:58;99951.34;;;23.11;38.81
69980;BME280;57318;56.232;43.944;2022-08-26T04:42:23;99958.72;;;23.17;39.37
69980;BME280;57318;56.232;43.944;2022-08-26T04:44:49;99959.78;;;23.23;39.21
69980;BME280;57318;56.232;43.944;2022-08-26T04:47:15;99953.78;;;23.28;39.93
69980;BME280;57318;56.232;43.944;2022-08-26T04:49:40;99957.22;;;23.36;39.86
69980;BME280;57318;56.232;43.944;2022-08-26T04:52:06;99957.09;;;23.45;40.05
69980;BME280;57318;56.232;43.944;2022-08-26T04:54:32;99964.50;;;23.57;39.45
69980;BME280;57318;56.232;43.944;2022-08-26T04:56:57;99961.84;;;23.64;38.29
69980;BME280;57318;56.232;43.944;2022-08-26T04:59:23;99966.63;;;23.62;37.37
69980;BME280;57318;56.232;43.944;2022-08-26T05:01:51;99971.28;;;23.68;37.69
69980;BME280;57318;56.232;43.944;2022-08-26T05:04:18;99969.72;;;23.81;37.36
69980;BME280;57318;56.232;43.944;2022-08-26T05:06:46;99971.00;;;23.85;37.24
69980;BME280;57318;56.232;43.944;2022-08-26T05:09:16;99964.91;;;24.04;37.14
69980;BME280;57318;56.232;43.944;2022-08-26T05:11:42;99959.34;;;24.19;36.31
69980;BME280;57318;56.232;43.944;2022-08-26T05:14:09;99963.00;;;24.33;36.29
69980;BME280;57318;56.232;43.944;2022-08-26T05:16:35;99964.09;;;24.45;36.17
69980;BME280;57318;56.232;43.944;2022-08-26T05:19:01;99964.53;;;24.49;36.02
69980;BME280;57318;56.232;43.944;2022-08-26T05:21:27;99959.63;;;24.59;36.21
69980;BME280;57318;56.232;43.944;2022-08-26T05:23:53;99960.50;;;24.66;36.88
69980;BME280;57318;56.232;43.944;2022-08-26T05:26:24;99962.22;;;24.81;37.35
69980;BME280;57318;56.232;43.944;2022-08-26T05:28:50;99968.97;;;24.98;37.33
69980;BME280;57318;56.232;43.944;2022-08-26T05:31:18;99968.56;;;25.01;37.79
69980;BME280;57318;56.232;43.944;2022-08-26T05:33:44;99969.38;;;25.02;37.30
69980;BME280;57318;56.232;43.944;2022-08-26T05:36:13;99969.44;;;25.15;37.37
69980;BME280;57318;56.232;43.944;2022-08-26T05:38:39;99970.28;;;25.22;37.45
69980;BME280;57318;56.232;43.944;2022-08-26T05:41:13;99971.59;;;25.40;37.36
69980;BME280;57318;56.232;43.944;2022-08-26T05:43:40;99977.88;;;25.54;37.34
69980;BME280;57318;56.232;43.944;2022-08-26T05:46:06;99987.09;;;25.73;37.30
69980;BME280;57318;56.232;43.944;2022-08-26T05:48:31;99982.50;;;25.93;36.83
69980;BME280;57318;56.232;43.944;2022-08-26T05:51:04;99985.88;;;26.22;36.84
69980;BME280;57318;56.232;43.944;2022-08-26T05:53:30;99978.88;;;26.46;36.41
69980;BME280;57318;56.232;43.944;2022-08-26T05:55:56;99984.09;;;26.55;37.18
69980;BME280;57318;56.232;43.944;2022-08-26T05:58:23;99975.88;;;26.61;37.06
69980;BME280;57318;56.232;43.944;2022-08-26T06:01:02;99979.22;;;26.83;35.92
69980;BME280;57318;56.232;43.944;2022-08-26T06:03:30;99978.91;;;26.98;35.60
69980;BME280;57318;56.232;43.944;2022-08-26T06:05:56;99979.75;;;27.06;34.98
69980;BME280;57318;56.232;43.944;2022-08-26T06:08:22;99978.88;;;27.12;34.72
69980;BME280;57318;56.232;43.944;2022-08-26T06:10:51;99982.38;;;27.19;34.82
69980;BME280;57318;56.232;43.944;2022-08-26T06:13:19;99984.63;;;27.35;35.05
69980;BME280;57318;56.232;43.944;2022-08-26T06:15:48;99984.44;;;27.62;35.18
69980;BME280;57318;56.232;43.944;2022-08-26T06:18:18;99986.00;;;27.77;34.83
69980;BME280;57318;56.232;43.944;2022-08-26T06:20:46;99984.91;;;28.10;34.55
69980;BME280;57318;56.232;43.944;2022-08-26T06:23:13;99990.91;;;29.41;32.30
69980;BME280;57318;56.232;43.944;2022-08-26T06:25:58;99997.91;;;31.43;29.41
69980;BME280;57318;56.232;43.944;2022-08-26T06:28:25;99996.91;;;33.18;26.69
69980;BME280;57318;56.232;43.944;2022-08-26T06:30:52;99994.06;;;35.00;24.67
69980;BME280;57318;56.232;43.944;2022-08-26T06:33:18;100004.53;;;36.78;22.41
69980;BME280;57318;56.232;43.944;2022-08-26T06:35:44;100006.88;;;38.49;20.37
69980;BME280;57318;56.232;43.944;2022-08-26T06:38:11;100006.94;;;39.82;18.69
69980;BME280;57318;56.232;43.944;2022-08-26T06:40:43;100009.31;;;41.05;16.89
69980;BME280;57318;56.232;43.944;2022-08-26T06:43:10;100011.25;;;41.18;16.73
69980;BME280;57318;56.232;43.944;2022-08-26T06:45:37;100013.91;;;41.82;16.24
69980;BME280;57318;56.232;43.944;2022-08-26T06:48:04;100018.69;;;42.53;15.98
69980;BME280;57318;56.232;43.944;2022-08-26T06:50:34;100017.25;;;43.22;14.64
69980;BME280;57318;56.232;43.944;2022-08-26T06:52:59;100024.16;;;43.60;13.76
69980;BME280;57318;56.232;43.944;2022-08-26T06:55:25;100032.19;;;43.96;13.34
69980;BME280;57318;56.232;43.944;2022-08-26T06:57:52;100027.94;;;45.06;12.87
69980;BME280;57318;56.232;43.944;2022-08-26T07:00:18;100023.38;;;45.35;12.58
69980;BME280;57318;56.232;43.944;2022-08-26T07:02:45;100026.41;;;45.30;12.38
69980;BME280;57318;56.232;43.944;2022-08-26T07:05:10;100019.72;;;45.43;12.59
69980;BME280;57318;56.232;43.944;2022-08-26T07:07:36;100025.94;;;45.49;12.46
69980;BME280;57318;56.232;43.944;2022-08-26T07:10:03;100029.34;;;46.34;11.91
69980;BME280;57318;56.232;43.944;2022-08-26T07:12:29;100032.41;;;46.78;11.58
69980;BME280;57318;56.232;43.944;2022-08-26T07:14:54;100030.09;;;47.33;10.86
69980;BME280;57318;56.232;43.944;2022-08-26T07:17:20;100023.00;;;47.11;11.06
69980;BME280;57318;56.232;43.944;2022-08-26T07:19:46;100023.28;;;46.93;10.81
69980;BME280;57318;56.232;43.944;2022-08-26T07:22:13;100017.94;;;47.45;10.52
69980;BME280;57318;56.232;43.944;2022-08-26T07:24:39;100016.25;;;47.28;10.56
69980;BME280;57318;56.232;43.944;2022-08-26T07:27:09;100020.22;;;46.74;11.43
69980;BME280;57318;56.232;43.944;2022-08-26T07:29:37;100020.56;;;47.38;10.62
69980;BME280;57318;56.232;43.944;2022-08-26T07:32:04;100007.28;;;47.66;10.52
69980;BME280;57318;56.232;43.944;2022-08-26T07:34:29;100019.94;;;48.17;10.43
69980;BME280;57318;56.232;43.944;2022-08-26T07:36:58;100021.47;;;48.62;10.62
69980;BME280;57318;56.232;43.944;2022-08-26T07:39:25;100016.84;;;48.38;10.78
69980;BME280;57318;56.232;43.944;2022-08-26T07:41:52;100023.53;;;48.81;10.54
69980;BME280;57318;56.232;43.944;2022-08-26T07:44:18;100023.59;;;48.85;10.28
69980;BME280;57318;56.232;43.944;2022-08-26T07:46:44;100017.28;;;49.27;9.91
69980;BME280;57318;56.232;43.944;2022-08-26T07:49:10;100010.38;;;48.37;10.60
69980;BME280;57318;56.232;43.944;2022-08-26T07:51:36;100017.91;;;48.65;10.60
69980;BME280;57318;56.232;43.944;2022-08-26T07:54:04;100014.56;;;48.95;10.35
69980;BME280;57318;56.232;43.944;2022-08-26T07:56:29;100012.75;;;48.51;10.92
69980;BME280;57318;56.232;43.944;2022-08-26T07:58:55;100026.41;;;49.40;10.38
69980;BME280;57318;56.232;43.944;2022-08-26T08:01:23;100011.63;;;49.27;10.38
69980;BME280;57318;56.232;43.944;2022-08-26T08:03:50;100016.00;;;48.37;10.21
69980;BME280;57318;56.232;43.944;2022-08-26T08:06:18;100016.00;;;48.69;10.23
69980;BME280;57318;56.232;43.944;2022-08-26T08:08:44;100024.50;;;49.08;9.65
69980;BME280;57318;56.232;43.944;2022-08-26T08:11:09;100017.94;;;49.01;9.98
69980;BME280;57318;56.232;43.944;2022-08-26T08:13:36;100011.34;;;49.52;9.24
69980;BME280;57318;56.232;43.944;2022-08-26T08:16:02;100007.25;;;50.38;8.50
69980;BME280;57318;56.232;43.944;2022-08-26T08:18:28;100016.63;;;49.96;8.98
69980;BME280;57318;56.232;43.944;2022-08-26T08:20:54;100008.03;;;49.89;9.15
69980;BME280;57318;56.232;43.944;2022-08-26T08:23:20;100013.38;;;50.17;9.12
69980;BME280;57318;56.232;43.944;2022-08-26T08:25:45;100015.22;;;50.32;8.80
69980;BME280;57318;56.232;43.944;2022-08-26T08:28:14;100010.53;;;49.94;8.90
69980;BME280;57318;56.232;43.944;2022-08-26T08:30:40;100010.97;;;49.96;8.85
69980;BME280;57318;56.232;43.944;2022-08-26T08:33:06;100016.63;;;50.19;8.81
69980;BME280;57318;56.232;43.944;2022-08-26T08:35:33;100015.50;;;50.24;8.81
69980;BME280;57318;56.232;43.944;2022-08-26T08:37:59;100005.53;;;51.14;8.15
69980;BME280;57318;56.232;43.944;2022-08-26T08:40:25;100011.22;;;51.17;8.18
69980;BME280;57318;56.232;43.944;2022-08-26T08:43:00;100009.34;;;50.68;8.76
69980;BME280;57318;56.232;43.944;2022-08-26T08:48:05;100005.31;;;49.96;8.80
69980;BME280;57318;56.232;43.944;2022-08-26T08:50:45;100005.44;;;49.02;9.46
69980;BME280;57318;56.232;43.944;2022-08-26T08:53:18;100008.56;;;49.75;8.91
69980;BME280;57318;56.232;43.944;2022-08-26T08:55:52;99995.91;;;50.34;8.77
69980;BME280;57318;56.232;43.944;2022-08-26T08:58:23;100001.59;;;48.74;9.46
69980;BME280;57318;56.232;43.944;2022-08-26T09:00:59;100002.28;;;49.23;9.56
69980;BME280;57318;56.232;43.944;2022-08-26T09:03:36;99997.00;;;49.83;9.27
69980;BME280;57318;56.232;43.944;2022-08-26T09:06:06;100000.03;;;50.17;9.29
69980;BME280;57318;56.232;43.944;2022-08-26T09:08:43;100004.06;;;50.93;8.37
69980;BME280;57318;56.232;43.944;2022-08-26T09:11:10;100002.81;;;50.64;8.55
69980;BME280;57318;56.232;43.944;2022-08-26T09:13:37;99998.50;;;50.47;9.38
69980;BME280;57318;56.232;43.944;2022-08-26T09:21:24;100005.66;;;51.24;8.26
69980;BME280;57318;56.232;43.944;2022-08-26T09:23:51;100003.81;;;51.05;8.63
69980;BME280;57318;56.232;43.944;2022-08-26T09:29:00;99995.69;;;51.34;8.25
69980;BME280;57318;56.232;43.944;2022-08-26T09:31:29;99997.88;;;51.48;8.26
69980;BME280;57318;56.232;43.944;2022-08-26T09:34:21;99992.78;;;50.97;8.62
69980;BME280;57318;56.232;43.944;2022-08-26T09:45:02;99991.03;;;51.90;7.34
69980;BME280;57318;56.232;43.944;2022-08-26T09:50:10;99985.28;;;51.83;7.56
69980;BME280;57318;56.232;43.944;2022-08-26T09:52:42;99992.56;;;51.81;7.55
69980;BME280;57318;56.232;43.944;2022-08-26T09:55:19;99982.28;;;52.06;7.32
69980;BME280;57318;56.232;43.944;2022-08-26T09:57:51;99983.81;;;52.48;7.02
69980;BME280;57318;56.232;43.944;2022-08-26T10:00:34;99981.78;;;51.97;7.56
69980;BME280;57318;56.232;43.944;2022-08-26T10:03:06;99978.50;;;51.54;7.52
69980;BME280;57318;56.232;43.944;2022-08-26T10:10:45;99981.91;;;52.15;8.23
69980;BME280;57318;56.232;43.944;2022-08-26T10:13:21;99974.53;;;52.00;8.29
69980;BME280;57318;56.232;43.944;2022-08-26T10:18:38;99973.84;;;52.73;7.23
69980;BME280;57318;56.232;43.944;2022-08-26T10:21:17;99968.38;;;52.42;7.08
69980;BME280;57318;56.232;43.944;2022-08-26T10:23:49;99977.94;;;52.23;7.26
69980;BME280;57318;56.232;43.944;2022-08-26T10:26:20;99976.41;;;52.29;7.50
69980;BME280;57318;56.232;43.944;2022-08-26T10:28:56;99977.94;;;52.23;6.92
69980;BME280;57318;56.232;43.944;2022-08-26T10:32:15;99973.38;;;52.08;7.51
69980;BME280;57318;56.232;43.944;2022-08-26T10:34:43;99967.22;;;51.99;6.66
69980;BME280;57318;56.232;43.944;2022-08-26T10:37:16;99972.22;;;51.34;7.10
69980;BME280;57318;56.232;43.944;2022-08-26T10:39:53;99972.19;;;51.00;6.93
69980;BME280;57318;56.232;43.944;2022-08-26T10:42:41;99964.53;;;51.72;6.56
69980;BME280;57318;56.232;43.944;2022-08-26T10:45:20;99963.06;;;51.14;7.15
69980;BME280;57318;56.232;43.944;2022-08-26T10:50:29;99946.22;;;51.24;7.64
69980;BME280;57318;56.232;43.944;2022-08-26T10:59:01;99945.03;;;50.92;6.98
69980;BME280;57318;56.232;43.944;2022-08-26T11:06:46;99948.69;;;52.67;5.59
69980;BME280;57318;56.232;43.944;2022-08-26T11:09:44;99944.84;;;51.45;6.14
69980;BME280;57318;56.232;43.944;2022-08-26T11:17:53;99923.63;;;50.37;6.87
69980;BME280;57318;56.232;43.944;2022-08-26T11:28:36;99929.06;;;50.49;6.48
69980;BME280;57318;56.232;43.944;2022-08-26T11:37:04;99926.38;;;50.30;7.41
69980;BME280;57318;56.232;43.944;2022-08-26T11:39:24;99908.78;;;49.47;7.68
69980;BME280;57318;56.232;43.944;2022-08-26T11:41:54;99916.22;;;50.02;7.77
69980;BME280;57318;56.232;43.944;2022-08-26T11:44:27;99915.84;;;50.04;7.25
69980;BME280;57318;56.232;43.944;2022-08-26T11:46:58;99914.59;;;50.01;7.54
69980;BME280;57318;56.232;43.944;2022-08-26T11:49:26;99909.44;;;49.83;7.91
69980;BME280;57318;56.232;43.944;2022-08-26T11:52:17;99912.25;;;50.30;7.70
69980;BME280;57318;56.232;43.944;2022-08-26T11:55:07;99903.75;;;50.03;7.15
69980;BME280;57318;56.232;43.944;2022-08-26T11:57:41;99909.38;;;49.80;7.89
69980;BME280;57318;56.232;43.944;2022-08-26T12:00:08;99905.84;;;49.40;8.44
69980;BME280;57318;56.232;43.944;2022-08-26T12:02:39;99889.47;;;49.49;8.16
69980;BME280;57318;56.232;43.944;2022-08-26T12:05:06;99904.78;;;49.95;7.85
69980;BME280;57318;56.232;43.944;2022-08-26T12:07:32;99900.00;;;50.52;7.33
69980;BME280;57318;56.232;43.944;2022-08-26T12:10:00;99894.72;;;49.28;7.66
69980;BME280;57318;56.232;43.944;2022-08-26T12:12:33;99901.13;;;48.86;8.18
69980;BME280;57318;56.232;43.944;2022-08-26T12:17:35;99893.84;;;49.04;7.99
69980;BME280;57318;56.232;43.944;2022-08-26T12:20:00;99888.78;;;48.19;8.34
69980;BME280;57318;56.232;43.944;2022-08-26T12:22:28;99887.13;;;48.02;8.61
69980;BME280;57318;56.232;43.944;2022-08-26T12:24:57;99885.16;;;47.87;8.86
69980;BME280;57318;56.232;43.944;2022-08-26T12:27:28;99885.34;;;47.62;9.25
69980;BME280;57318;56.232;43.944;2022-08-26T12:32:41;99882.13;;;47.04;9.48
69980;BME280;57318;56.232;43.944;2022-08-26T12:35:09;99872.41;;;45.49;10.25
69980;BME280;57318;56.232;43.944;2022-08-26T12:37:39;99869.06;;;44.38;11.14
69980;BME280;57318;56.232;43.944;2022-08-26T12:42:49;99871.28;;;43.38;12.35
69980;BME280;57318;56.232;43.944;2022-08-26T12:45:29;99868.88;;;42.66;13.08
69980;BME280;57318;56.232;43.944;2022-08-26T12:48:00;99863.78;;;42.68;12.94
69980;BME280;57318;56.232;43.944;2022-08-26T12:50:32;99855.44;;;42.11;13.63
69980;BME280;57318;56.232;43.944;2022-08-26T13:08:56;99858.69;;;42.70;13.20
69980;BME280;57318;56.232;43.944;2022-08-26T13:14:09;99850.72;;;42.20;13.32
69980;BME280;57318;56.232;43.944;2022-08-26T13:16:37;99850.81;;;42.06;13.55
69980;BME280;57318;56.232;43.944;2022-08-26T13:19:09;99845.16;;;42.20;13.39
69980;BME280;57318;56.232;43.944;2022-08-26T13:21:53;99850.25;;;42.35;13.66
69980;BME280;57318;56.232;43.944;2022-08-26T13:24:34;99857.47;;;42.28;13.86
69980;BME280;57318;56.232;43.944;2022-08-26T13:27:02;99854.03;;;42.31;13.95
69980;BME280;57318;56.232;43.944;2022-08-26T13:29:28;99853.59;;;42.64;13.01
69980;BME280;57318;56.232;43.944;2022-08-26T13:31:54;99849.72;;;42.16;13.47
69980;BME280;57318;56.232;43.944;2022-08-26T13:34:21;99846.22;;;42.01;14.00
69980;BME280;57318;56.232;43.944;2022-08-26T13:36:49;99850.00;;;42.06;14.03
69980;BME280;57318;56.232;43.944;2022-08-26T13:39:15;99845.69;;;41.82;13.36
69980;BME280;57318;56.232;43.944;2022-08-26T13:41:41;99844.19;;;41.53;13.23
69980;BME280;57318;56.232;43.944;2022-08-26T13:44:08;99846.22;;;41.30;13.64
69980;BME280;57318;56.232;43.944;2022-08-26T13:46:34;99848.75;;;41.18;13.44
69980;BME280;57318;56.232;43.944;2022-08-26T13:48:59;99849.81;;;41.08;13.68
69980;BME280;57318;56.232;43.944;2022-08-26T13:51:26;99846.09;;;40.90;14.29
69980;BME280;57318;56.232;43.944;2022-08-26T13:53:52;99849.84;;;40.71;14.68
69980;BME280;57318;56.232;43.944;2022-08-26T13:56:18;99849.19;;;40.74;15.01
69980;BME280;57318;56.232;43.944;2022-08-26T13:58:45;99854.09;;;40.69;15.45
69980;BME280;57318;56.232;43.944;2022-08-26T14:01:12;99847.03;;;40.71;15.23
69980;BME280;57318;56.232;43.944;2022-08-26T14:03:38;99849.78;;;40.63;15.21
69980;BME280;57318;56.232;43.944;2022-08-26T14:06:04;99854.16;;;40.13;15.08
69980;BME280;57318;56.232;43.944;2022-08-26T14:08:29;99841.72;;;40.11;14.97
